sensor_id;sensor_type;location;lat;lon;timestamp;P1;durP1;ratioP1;P2;durP2;ratioP2
9522;SDS011;63165;43.016;25.784;2022-12-29T00:00:19;53.13;;;17.23;;
9522;SDS011;63165;43.016;25.784;2022-12-29T00:02:47;35.90;;;11.85;;
9522;SDS011;63165;43.016;25.784;2022-12-29T00:05:15;28.50;;;10.20;;
9522;SDS011;63165;43.016;25.784;2022-12-29T00:07:43;27.65;;;10.57;;
9522;SDS011;63165;43.016;25.784;2022-12-29T00:10:10;32.42;;;10.93;;
9522;SDS011;63165;43.016;25.784;2022-12-29T00:12:37;27.75;;;9.88;;
9522;SDS011;63165;43.016;25.784;2022-12-29T00:15:22;42.67;;;13.35;;
9522;SDS011;63165;43.016;25.784;2022-12-29T00:18:05;38.83;;;13.17;;
9522;SDS011;63165;43.016;25.784;2022-12-29T00:20:34;40.50;;;12.68;;
9522;SDS011;63165;43.016;25.784;2022-12-29T00:23:18;41.95;;;13.40;;
9522;SDS011;63165;43.016;25.784;2022-12-29T00:26:04;35.95;;;11.70;;
9522;SDS011;63165;43.016;25.784;2022-12-29T00:28:56;27.80;;;8.50;;
9522;SDS011;63165;43.016;25.784;2022-12-29T00:31:41;30.80;;;10.80;;
9522;SDS011;63165;43.016;25.784;2022-12-29T00:34:25;32.55;;;10.40;;
9522;SDS011;63165;43.016;25.784;2022-12-29T00:37:11;29.13;;;10.55;;
9522;SDS011;63165;43.016;25.784;2022-12-29T00:39:38;29.83;;;10.48;;
9522;SDS011;63165;43.016;25.784;2022-12-29T00:42:22;31.08;;;11.07;;
9522;SDS011;63165;43.016;25.784;2022-12-29T00:45:07;37.15;;;11.80;;
9522;SDS011;63165;43.016;25.784;2022-12-29T00:47:35;31.42;;;10.40;;
9522;SDS011;63165;43.016;25.784;2022-12-29T00:50:02;33.85;;;10.75;;
9522;SDS011;63165;43.016;25.784;2022-12-29T00:52:30;30.40;;;10.05;;
9522;SDS011;63165;43.016;25.784;2022-12-29T00:54:57;26.33;;;9.80;;
9522;SDS011;63165;43.016;25.784;2022-12-29T00:57:24;28.77;;;10.32;;
9522;SDS011;63165;43.016;25.784;2022-12-29T00:59:52;34.47;;;11.65;;
9522;SDS011;63165;43.016;25.784;2022-12-29T01:02:19;31.45;;;11.55;;
9522;SDS011;63165;43.016;25.784;2022-12-29T01:04:46;34.83;;;12.00;;
9522;SDS011;63165;43.016;25.784;2022-12-29T01:07:13;40.25;;;13.27;;
9522;SDS011;63165;43.016;25.784;2022-12-29T01:09:42;48.13;;;14.30;;
9522;SDS011;63165;43.016;25.784;2022-12-29T01:12:26;52.03;;;12.23;;
9522;SDS011;63165;43.016;25.784;2022-12-29T01:17:37;43.25;;;12.07;;
9522;SDS011;63165;43.016;25.784;2022-12-29T01:20:05;45.33;;;12.00;;
9522;SDS011;63165;43.016;25.784;2022-12-29T01:22:33;39.45;;;12.15;;
9522;SDS011;63165;43.016;25.784;2022-12-29T01:25:02;48.33;;;14.85;;
9522;SDS011;63165;43.016;25.784;2022-12-29T01:27:29;60.15;;;17.00;;
9522;SDS011;63165;43.016;25.784;2022-12-29T01:29:57;55.15;;;16.45;;
9522;SDS011;63165;43.016;25.784;2022-12-29T01:32:24;37.35;;;11.90;;
9522;SDS011;63165;43.016;25.784;2022-12-29T01:34:51;41.10;;;12.45;;
9522;SDS011;63165;43.016;25.784;2022-12-29T01:37:18;43.17;;;11.85;;
9522;SDS011;63165;43.016;25.784;2022-12-29T01:39:45;33.38;;;11.35;;
9522;SDS011;63165;43.016;25.784;2022-12-29T01:42:16;42.72;;;11.85;;
9522;SDS011;63165;43.016;25.784;2022-12-29T01:44:49;41.53;;;12.00;;
9522;SDS011;63165;43.016;25.784;2022-12-29T01:47:20;37.55;;;11.65;;
9522;SDS011;63165;43.016;25.784;2022-12-29T01:49:53;33.30;;;10.80;;
9522;SDS011;63165;43.016;25.784;2022-12-29T01:52:24;34.33;;;11.05;;
9522;SDS011;63165;43.016;25.784;2022-12-29T01:54:53;38.92;;;11.73;;
9522;SDS011;63165;43.016;25.784;2022-12-29T01:57:27;33.00;;;11.05;;
9522;SDS011;63165;43.016;25.784;2022-12-29T01:59:58;36.55;;;11.02;;
9522;SDS011;63165;43.016;25.784;2022-12-29T02:02:29;32.95;;;11.38;;
9522;SDS011;63165;43.016;25.784;2022-12-29T02:04:58;36.33;;;11.77;;
9522;SDS011;63165;43.016;25.784;2022-12-29T02:07:29;34.90;;;11.23;;
9522;SDS011;63165;43.016;25.784;2022-12-29T02:09:58;39.67;;;12.23;;
9522;SDS011;63165;43.016;25.784;2022-12-29T02:12:30;33.95;;;11.48;;
9522;SDS011;63165;43.016;25.784;2022-12-29T02:14:58;35.55;;;11.77;;
9522;SDS011;63165;43.016;25.784;2022-12-29T02:17:32;41.50;;;11.98;;
9522;SDS011;63165;43.016;25.784;2022-12-29T02:23:33;42.58;;;11.52;;
9522;SDS011;63165;43.016;25.784;2022-12-29T02:26:33;34.90;;;11.82;;
9522;SDS011;63165;43.016;25.784;2022-12-29T02:32:25;50.85;;;16.65;;
9522;SDS011;63165;43.016;25.784;2022-12-29T02:35:05;39.78;;;13.52;;
9522;SDS011;63165;43.016;25.784;2022-12-29T02:37:40;34.75;;;11.63;;
9522;SDS011;63165;43.016;25.784;2022-12-29T02:40:16;42.70;;;13.63;;
9522;SDS011;63165;43.016;25.784;2022-12-29T02:42:50;39.10;;;13.05;;
9522;SDS011;63165;43.016;25.784;2022-12-29T02:45:26;37.38;;;13.30;;
9522;SDS011;63165;43.016;25.784;2022-12-29T02:48:00;40.37;;;13.13;;
9522;SDS011;63165;43.016;25.784;2022-12-29T02:50:36;40.92;;;12.15;;
9522;SDS011;63165;43.016;25.784;2022-12-29T02:53:06;33.90;;;11.27;;
9522;SDS011;63165;43.016;25.784;2022-12-29T02:55:37;31.92;;;11.50;;
9522;SDS011;63165;43.016;25.784;2022-12-29T02:58:15;57.58;;;21.23;;
9522;SDS011;63165;43.016;25.784;2022-12-29T03:00:47;39.03;;;12.55;;
9522;SDS011;63165;43.016;25.784;2022-12-29T03:03:31;43.20;;;14.45;;
9522;SDS011;63165;43.016;25.784;2022-12-29T03:06:12;45.90;;;14.35;;
9522;SDS011;63165;43.016;25.784;2022-12-29T03:08:48;48.55;;;17.15;;
9522;SDS011;63165;43.016;25.784;2022-12-29T03:11:21;57.15;;;19.08;;
9522;SDS011;63165;43.016;25.784;2022-12-29T03:14:13;62.45;;;18.88;;
9522;SDS011;63165;43.016;25.784;2022-12-29T03:17:03;176.27;;;46.38;;
9522;SDS011;63165;43.016;25.784;2022-12-29T03:19:38;140.50;;;41.03;;
9522;SDS011;63165;43.016;25.784;2022-12-29T03:22:12;194.02;;;56.20;;
9522;SDS011;63165;43.016;25.784;2022-12-29T03:24:54;138.07;;;40.17;;
9522;SDS011;63165;43.016;25.784;2022-12-29T03:27:25;133.43;;;41.72;;
9522;SDS011;63165;43.016;25.784;2022-12-29T03:29:57;95.10;;;30.58;;
9522;SDS011;63165;43.016;25.784;2022-12-29T03:32:28;89.75;;;27.30;;
9522;SDS011;63165;43.016;25.784;2022-12-29T03:35:02;87.82;;;28.20;;
9522;SDS011;63165;43.016;25.784;2022-12-29T03:37:31;88.75;;;27.20;;
9522;SDS011;63165;43.016;25.784;2022-12-29T03:40:03;81.80;;;26.55;;
9522;SDS011;63165;43.016;25.784;2022-12-29T03:42:32;75.78;;;25.17;;
9522;SDS011;63165;43.016;25.784;2022-12-29T03:45:03;84.13;;;26.42;;
9522;SDS011;63165;43.016;25.784;2022-12-29T03:47:31;73.35;;;22.23;;
9522;SDS011;63165;43.016;25.784;2022-12-29T03:49:58;76.22;;;23.63;;
9522;SDS011;63165;43.016;25.784;2022-12-29T03:52:27;72.38;;;20.63;;
9522;SDS011;63165;43.016;25.784;2022-12-29T03:54:54;65.53;;;20.63;;
9522;SDS011;63165;43.016;25.784;2022-12-29T03:57:21;53.72;;;19.85;;
9522;SDS011;63165;43.016;25.784;2022-12-29T03:59:49;58.45;;;18.83;;
9522;SDS011;63165;43.016;25.784;2022-12-29T04:02:16;55.08;;;17.90;;
9522;SDS011;63165;43.016;25.784;2022-12-29T04:04:43;51.03;;;17.45;;
9522;SDS011;63165;43.016;25.784;2022-12-29T04:07:10;40.55;;;15.85;;
9522;SDS011;63165;43.016;25.784;2022-12-29T04:09:39;40.65;;;13.05;;
9522;SDS011;63165;43.016;25.784;2022-12-29T04:12:06;35.30;;;14.18;;
9522;SDS011;63165;43.016;25.784;2022-12-29T04:14:34;34.10;;;11.73;;
9522;SDS011;63165;43.016;25.784;2022-12-29T04:17:01;31.65;;;11.98;;
9522;SDS011;63165;43.016;25.784;2022-12-29T04:19:28;28.92;;;10.38;;
9522;SDS011;63165;43.016;25.784;2022-12-29T04:21:55;23.00;;;9.45;;
9522;SDS011;63165;43.016;25.784;2022-12-29T04:24:22;27.88;;;10.05;;
9522;SDS011;63165;43.016;25.784;2022-12-29T04:26:51;32.67;;;10.77;;
9522;SDS011;63165;43.016;25.784;2022-12-29T04:29:19;51.85;;;15.93;;
9522;SDS011;63165;43.016;25.784;2022-12-29T04:31:46;33.72;;;11.63;;
9522;SDS011;63165;43.016;25.784;2022-12-29T04:34:13;49.35;;;15.13;;
9522;SDS011;63165;43.016;25.784;2022-12-29T04:36:40;60.08;;;19.27;;
9522;SDS011;63165;43.016;25.784;2022-12-29T04:39:07;64.47;;;19.45;;
9522;SDS011;63165;43.016;25.784;2022-12-29T04:41:35;57.20;;;18.00;;
9522;SDS011;63165;43.016;25.784;2022-12-29T04:44:03;51.70;;;16.55;;
9522;SDS011;63165;43.016;25.784;2022-12-29T04:46:31;47.50;;;15.02;;
9522;SDS011;63165;43.016;25.784;2022-12-29T04:48:58;43.08;;;13.38;;
9522;SDS011;63165;43.016;25.784;2022-12-29T04:51:32;42.83;;;13.30;;
9522;SDS011;63165;43.016;25.784;2022-12-29T04:54:00;37.22;;;12.18;;
9522;SDS011;63165;43.016;25.784;2022-12-29T04:56:27;40.55;;;12.15;;
9522;SDS011;63165;43.016;25.784;2022-12-29T04:58:54;31.38;;;11.63;;
9522;SDS011;63165;43.016;25.784;2022-12-29T05:01:23;30.33;;;10.20;;
9522;SDS011;63165;43.016;25.784;2022-12-29T05:03:50;25.52;;;10.35;;
9522;SDS011;63165;43.016;25.784;2022-12-29T05:06:18;25.50;;;10.48;;
9522;SDS011;63165;43.016;25.784;2022-12-29T05:08:46;24.63;;;9.75;;
9522;SDS011;63165;43.016;25.784;2022-12-29T05:11:13;30.02;;;11.70;;
9522;SDS011;63165;43.016;25.784;2022-12-29T05:13:40;45.72;;;17.67;;
9522;SDS011;63165;43.016;25.784;2022-12-29T05:16:08;60.83;;;21.40;;
9522;SDS011;63165;43.016;25.784;2022-12-29T05:18:36;47.30;;;16.83;;
9522;SDS011;63165;43.016;25.784;2022-12-29T05:21:04;43.17;;;14.15;;
9522;SDS011;63165;43.016;25.784;2022-12-29T05:23:32;39.63;;;13.65;;
9522;SDS011;63165;43.016;25.784;2022-12-29T05:25:59;44.88;;;14.30;;
9522;SDS011;63165;43.016;25.784;2022-12-29T05:28:27;42.33;;;14.23;;
9522;SDS011;63165;43.016;25.784;2022-12-29T05:30:54;40.75;;;14.55;;
9522;SDS011;63165;43.016;25.784;2022-12-29T05:33:22;36.05;;;13.25;;
9522;SDS011;63165;43.016;25.784;2022-12-29T05:35:51;37.22;;;13.77;;
9522;SDS011;63165;43.016;25.784;2022-12-29T05:38:18;38.92;;;13.90;;
9522;SDS011;63165;43.016;25.784;2022-12-29T05:40:45;36.15;;;13.80;;
9522;SDS011;63165;43.016;25.784;2022-12-29T05:43:13;44.75;;;15.27;;
9522;SDS011;63165;43.016;25.784;2022-12-29T05:45:40;60.45;;;19.25;;
9522;SDS011;63165;43.016;25.784;2022-12-29T05:48:08;65.45;;;21.25;;
9522;SDS011;63165;43.016;25.784;2022-12-29T05:50:46;56.38;;;19.83;;
9522;SDS011;63165;43.016;25.784;2022-12-29T05:53:16;49.08;;;15.98;;
9522;SDS011;63165;43.016;25.784;2022-12-29T05:55:44;48.25;;;15.57;;
9522;SDS011;63165;43.016;25.784;2022-12-29T05:58:13;42.90;;;14.75;;
9522;SDS011;63165;43.016;25.784;2022-12-29T06:00:40;42.58;;;13.55;;
9522;SDS011;63165;43.016;25.784;2022-12-29T06:03:08;37.47;;;12.80;;
9522;SDS011;63165;43.016;25.784;2022-12-29T06:05:36;45.50;;;13.73;;
9522;SDS011;63165;43.016;25.784;2022-12-29T06:08:05;31.98;;;11.43;;
9522;SDS011;63165;43.016;25.784;2022-12-29T06:10:34;34.10;;;12.05;;
9522;SDS011;63165;43.016;25.784;2022-12-29T06:13:02;33.45;;;10.77;;
9522;SDS011;63165;43.016;25.784;2022-12-29T06:15:30;39.38;;;12.00;;
9522;SDS011;63165;43.016;25.784;2022-12-29T06:17:59;23.73;;;11.00;;
9522;SDS011;63165;43.016;25.784;2022-12-29T06:20:26;35.55;;;11.07;;
9522;SDS011;63165;43.016;25.784;2022-12-29T06:22:53;32.35;;;11.85;;
9522;SDS011;63165;43.016;25.784;2022-12-29T06:25:20;36.13;;;11.32;;
9522;SDS011;63165;43.016;25.784;2022-12-29T06:27:49;36.25;;;12.43;;
9522;SDS011;63165;43.016;25.784;2022-12-29T06:30:16;55.28;;;17.98;;
9522;SDS011;63165;43.016;25.784;2022-12-29T06:32:44;64.55;;;21.23;;
9522;SDS011;63165;43.016;25.784;2022-12-29T06:35:11;71.47;;;25.13;;
9522;SDS011;63165;43.016;25.784;2022-12-29T06:37:38;45.42;;;16.08;;
9522;SDS011;63165;43.016;25.784;2022-12-29T06:40:06;38.15;;;12.15;;
9522;SDS011;63165;43.016;25.784;2022-12-29T06:42:34;29.40;;;11.50;;
9522;SDS011;63165;43.016;25.784;2022-12-29T06:45:04;89.57;;;26.80;;
9522;SDS011;63165;43.016;25.784;2022-12-29T06:47:32;99.03;;;32.08;;
9522;SDS011;63165;43.016;25.784;2022-12-29T06:49:59;92.20;;;30.38;;
9522;SDS011;63165;43.016;25.784;2022-12-29T06:52:27;82.57;;;27.25;;
9522;SDS011;63165;43.016;25.784;2022-12-29T06:54:54;88.07;;;30.23;;
9522;SDS011;63165;43.016;25.784;2022-12-29T06:57:22;101.88;;;34.85;;
9522;SDS011;63165;43.016;25.784;2022-12-29T06:59:49;110.10;;;38.38;;
9522;SDS011;63165;43.016;25.784;2022-12-29T07:02:18;102.43;;;35.08;;
9522;SDS011;63165;43.016;25.784;2022-12-29T07:04:45;105.03;;;35.70;;
9522;SDS011;63165;43.016;25.784;2022-12-29T07:07:12;102.70;;;33.03;;
9522;SDS011;63165;43.016;25.784;2022-12-29T07:09:39;99.82;;;33.75;;
9522;SDS011;63165;43.016;25.784;2022-12-29T07:12:07;115.53;;;39.95;;
9522;SDS011;63165;43.016;25.784;2022-12-29T07:14:34;122.32;;;41.05;;
9522;SDS011;63165;43.016;25.784;2022-12-29T07:17:02;145.30;;;39.88;;
9522;SDS011;63165;43.016;25.784;2022-12-29T07:19:32;127.40;;;39.58;;
9522;SDS011;63165;43.016;25.784;2022-12-29T07:22:00;120.40;;;38.90;;
9522;SDS011;63165;43.016;25.784;2022-12-29T07:24:27;140.55;;;45.08;;
9522;SDS011;63165;43.016;25.784;2022-12-29T07:26:55;146.50;;;45.35;;
9522;SDS011;63165;43.016;25.784;2022-12-29T07:29:22;129.43;;;41.05;;
9522;SDS011;63165;43.016;25.784;2022-12-29T07:31:49;102.13;;;34.25;;
9522;SDS011;63165;43.016;25.784;2022-12-29T07:34:16;110.43;;;37.08;;
9522;SDS011;63165;43.016;25.784;2022-12-29T07:36:45;107.22;;;35.17;;
9522;SDS011;63165;43.016;25.784;2022-12-29T07:39:12;107.65;;;35.65;;
9522;SDS011;63165;43.016;25.784;2022-12-29T07:41:39;88.30;;;31.13;;
9522;SDS011;63165;43.016;25.784;2022-12-29T07:44:08;74.82;;;25.88;;
9522;SDS011;63165;43.016;25.784;2022-12-29T07:46:35;98.88;;;29.42;;
9522;SDS011;63165;43.016;25.784;2022-12-29T07:49:02;95.50;;;32.50;;
9522;SDS011;63165;43.016;25.784;2022-12-29T07:51:29;88.65;;;31.98;;
9522;SDS011;63165;43.016;25.784;2022-12-29T07:53:58;86.05;;;30.90;;
9522;SDS011;63165;43.016;25.784;2022-12-29T07:56:26;75.88;;;26.67;;
9522;SDS011;63165;43.016;25.784;2022-12-29T07:58:53;79.70;;;26.88;;
9522;SDS011;63165;43.016;25.784;2022-12-29T08:01:21;73.43;;;24.63;;
9522;SDS011;63165;43.016;25.784;2022-12-29T08:03:48;66.43;;;23.02;;
9522;SDS011;63165;43.016;25.784;2022-12-29T08:06:15;59.63;;;20.13;;
9522;SDS011;63165;43.016;25.784;2022-12-29T08:08:43;56.03;;;19.83;;
9522;SDS011;63165;43.016;25.784;2022-12-29T08:11:12;49.20;;;18.20;;
9522;SDS011;63165;43.016;25.784;2022-12-29T08:13:39;53.00;;;18.67;;
9522;SDS011;63165;43.016;25.784;2022-12-29T08:16:07;56.58;;;18.55;;
9522;SDS011;63165;43.016;25.784;2022-12-29T08:18:34;55.47;;;20.17;;
9522;SDS011;63165;43.016;25.784;2022-12-29T08:21:02;54.60;;;20.15;;
9522;SDS011;63165;43.016;25.784;2022-12-29T08:23:30;64.20;;;21.88;;
9522;SDS011;63165;43.016;25.784;2022-12-29T08:25:57;95.00;;;27.27;;
9522;SDS011;63165;43.016;25.784;2022-12-29T08:28:27;508.15;;;124.60;;
9522;SDS011;63165;43.016;25.784;2022-12-29T08:30:56;190.07;;;46.17;;
9522;SDS011;63165;43.016;25.784;2022-12-29T08:33:24;103.82;;;28.67;;
9522;SDS011;63165;43.016;25.784;2022-12-29T08:35:51;69.72;;;22.40;;
9522;SDS011;63165;43.016;25.784;2022-12-29T08:38:19;140.68;;;38.42;;
9522;SDS011;63165;43.016;25.784;2022-12-29T08:40:46;60.45;;;16.88;;
9522;SDS011;63165;43.016;25.784;2022-12-29T08:43:13;45.47;;;16.75;;
9522;SDS011;63165;43.016;25.784;2022-12-29T08:45:42;33.75;;;12.77;;
9522;SDS011;63165;43.016;25.784;2022-12-29T08:48:09;34.17;;;13.18;;
9522;SDS011;63165;43.016;25.784;2022-12-29T08:50:36;130.00;;;38.92;;
9522;SDS011;63165;43.016;25.784;2022-12-29T08:53:04;25.75;;;9.00;;
9522;SDS011;63165;43.016;25.784;2022-12-29T08:55:31;21.17;;;8.32;;
9522;SDS011;63165;43.016;25.784;2022-12-29T08:57:58;98.05;;;31.30;;
9522;SDS011;63165;43.016;25.784;2022-12-29T09:00:25;49.55;;;16.95;;
9522;SDS011;63165;43.016;25.784;2022-12-29T09:02:54;58.15;;;18.52;;
9522;SDS011;63165;43.016;25.784;2022-12-29T09:05:21;34.08;;;10.85;;
9522;SDS011;63165;43.016;25.784;2022-12-29T09:07:48;29.02;;;10.23;;
9522;SDS011;63165;43.016;25.784;2022-12-29T09:10:15;82.07;;;25.13;;
9522;SDS011;63165;43.016;25.784;2022-12-29T09:12:43;33.80;;;11.98;;
9522;SDS011;63165;43.016;25.784;2022-12-29T09:15:10;37.22;;;13.05;;
9522;SDS011;63165;43.016;25.784;2022-12-29T09:17:38;29.75;;;10.75;;
9522;SDS011;63165;43.016;25.784;2022-12-29T09:20:11;27.90;;;11.00;;
9522;SDS011;63165;43.016;25.784;2022-12-29T09:22:40;21.70;;;8.55;;
9522;SDS011;63165;43.016;25.784;2022-12-29T09:25:09;22.80;;;9.00;;
9522;SDS011;63165;43.016;25.784;2022-12-29T09:27:37;26.30;;;9.05;;
9522;SDS011;63165;43.016;25.784;2022-12-29T09:30:06;28.55;;;10.15;;
9522;SDS011;63165;43.016;25.784;2022-12-29T09:32:36;36.50;;;12.70;;
9522;SDS011;63165;43.016;25.784;2022-12-29T09:35:04;218.90;;;50.15;;
9522;SDS011;63165;43.016;25.784;2022-12-29T09:37:33;24.85;;;8.48;;
9522;SDS011;63165;43.016;25.784;2022-12-29T09:40:01;23.95;;;9.10;;
9522;SDS011;63165;43.016;25.784;2022-12-29T09:42:29;27.42;;;8.90;;
9522;SDS011;63165;43.016;25.784;2022-12-29T09:45:05;21.20;;;7.25;;
9522;SDS011;63165;43.016;25.784;2022-12-29T09:47:40;52.42;;;13.23;;
9522;SDS011;63165;43.016;25.784;2022-12-29T09:50:10;27.20;;;8.82;;
9522;SDS011;63165;43.016;25.784;2022-12-29T09:52:50;183.63;;;37.35;;
9522;SDS011;63165;43.016;25.784;2022-12-29T09:55:23;52.58;;;14.13;;
9522;SDS011;63165;43.016;25.784;2022-12-29T09:57:57;36.40;;;11.15;;
9522;SDS011;63165;43.016;25.784;2022-12-29T10:00:33;17.08;;;5.95;;
9522;SDS011;63165;43.016;25.784;2022-12-29T10:03:05;177.93;;;43.72;;
9522;SDS011;63165;43.016;25.784;2022-12-29T10:05:46;78.25;;;22.48;;
9522;SDS011;63165;43.016;25.784;2022-12-29T10:08:22;45.53;;;14.55;;
9522;SDS011;63165;43.016;25.784;2022-12-29T10:10:57;63.47;;;17.20;;
9522;SDS011;63165;43.016;25.784;2022-12-29T10:13:36;33.70;;;9.90;;
9522;SDS011;63165;43.016;25.784;2022-12-29T10:16:14;52.80;;;14.65;;
9522;SDS011;63165;43.016;25.784;2022-12-29T10:21:40;19.40;;;6.82;;
9522;SDS011;63165;43.016;25.784;2022-12-29T10:24:19;18.35;;;6.40;;
9522;SDS011;63165;43.016;25.784;2022-12-29T10:26:48;13.95;;;6.00;;
9522;SDS011;63165;43.016;25.784;2022-12-29T10:29:18;18.45;;;6.80;;
9522;SDS011;63165;43.016;25.784;2022-12-29T10:31:49;12.55;;;5.50;;
9522;SDS011;63165;43.016;25.784;2022-12-29T10:34:21;15.90;;;6.03;;
9522;SDS011;63165;43.016;25.784;2022-12-29T10:36:52;17.30;;;7.18;;
9522;SDS011;63165;43.016;25.784;2022-12-29T10:39:26;20.20;;;7.10;;
9522;SDS011;63165;43.016;25.784;2022-12-29T10:42:00;16.85;;;6.15;;
9522;SDS011;63165;43.016;25.784;2022-12-29T10:44:36;17.55;;;6.60;;
9522;SDS011;63165;43.016;25.784;2022-12-29T10:47:04;14.80;;;5.57;;
9522;SDS011;63165;43.016;25.784;2022-12-29T10:49:39;13.65;;;5.43;;
9522;SDS011;63165;43.016;25.784;2022-12-29T10:52:09;15.18;;;5.70;;
9522;SDS011;63165;43.016;25.784;2022-12-29T10:54:44;29.45;;;12.02;;
9522;SDS011;63165;43.016;25.784;2022-12-29T10:57:19;28.42;;;11.15;;
9522;SDS011;63165;43.016;25.784;2022-12-29T10:59:52;35.13;;;12.43;;
9522;SDS011;63165;43.016;25.784;2022-12-29T11:02:25;23.02;;;8.75;;
9522;SDS011;63165;43.016;25.784;2022-12-29T11:05:15;16.63;;;6.63;;
9522;SDS011;63165;43.016;25.784;2022-12-29T11:07:50;14.90;;;6.25;;
9522;SDS011;63165;43.016;25.784;2022-12-29T11:10:34;19.58;;;8.25;;
9522;SDS011;63165;43.016;25.784;2022-12-29T11:13:10;17.27;;;5.70;;
9522;SDS011;63165;43.016;25.784;2022-12-29T11:15:39;13.02;;;5.22;;
9522;SDS011;63165;43.016;25.784;2022-12-29T11:18:17;11.57;;;5.60;;
9522;SDS011;63165;43.016;25.784;2022-12-29T11:20:46;34.97;;;12.05;;
9522;SDS011;63165;43.016;25.784;2022-12-29T11:23:25;14.63;;;5.78;;
9522;SDS011;63165;43.016;25.784;2022-12-29T11:31:51;14.88;;;5.63;;
9522;SDS011;63165;43.016;25.784;2022-12-29T11:34:21;29.05;;;9.40;;
9522;SDS011;63165;43.016;25.784;2022-12-29T11:36:51;50.22;;;10.25;;
9522;SDS011;63165;43.016;25.784;2022-12-29T11:39:27;18.73;;;6.60;;
9522;SDS011;63165;43.016;25.784;2022-12-29T11:42:12;26.70;;;9.55;;
9522;SDS011;63165;43.016;25.784;2022-12-29T11:44:43;16.05;;;6.00;;
9522;SDS011;63165;43.016;25.784;2022-12-29T11:47:20;15.45;;;6.13;;
9522;SDS011;63165;43.016;25.784;2022-12-29T11:49:53;14.07;;;5.43;;
9522;SDS011;63165;43.016;25.784;2022-12-29T11:52:23;12.77;;;5.22;;
9522;SDS011;63165;43.016;25.784;2022-12-29T11:54:53;12.43;;;4.97;;
9522;SDS011;63165;43.016;25.784;2022-12-29T11:57:24;40.33;;;9.23;;
9522;SDS011;63165;43.016;25.784;2022-12-29T11:59:52;16.45;;;5.78;;
9522;SDS011;63165;43.016;25.784;2022-12-29T12:02:31;57.65;;;21.73;;
9522;SDS011;63165;43.016;25.784;2022-12-29T12:05:09;16.15;;;5.90;;
9522;SDS011;63165;43.016;25.784;2022-12-29T12:07:42;15.50;;;6.45;;
9522;SDS011;63165;43.016;25.784;2022-12-29T12:10:14;26.98;;;11.50;;
9522;SDS011;63165;43.016;25.784;2022-12-29T12:12:48;18.83;;;7.45;;
9522;SDS011;63165;43.016;25.784;2022-12-29T12:15:20;23.55;;;8.98;;
9522;SDS011;63165;43.016;25.784;2022-12-29T12:17:52;23.05;;;8.48;;
9522;SDS011;63165;43.016;25.784;2022-12-29T12:20:22;12.82;;;4.95;;
9522;SDS011;63165;43.016;25.784;2022-12-29T12:23:01;28.48;;;11.90;;
9522;SDS011;63165;43.016;25.784;2022-12-29T12:25:40;36.78;;;14.45;;
9522;SDS011;63165;43.016;25.784;2022-12-29T12:28:15;43.10;;;16.45;;
9522;SDS011;63165;43.016;25.784;2022-12-29T12:30:49;24.30;;;9.05;;
9522;SDS011;63165;43.016;25.784;2022-12-29T12:33:22;25.43;;;8.80;;
9522;SDS011;63165;43.016;25.784;2022-12-29T12:36:00;18.52;;;7.32;;
9522;SDS011;63165;43.016;25.784;2022-12-29T12:38:42;92.05;;;24.70;;
9522;SDS011;63165;43.016;25.784;2022-12-29T12:41:16;50.60;;;12.55;;
9522;SDS011;63165;43.016;25.784;2022-12-29T12:43:56;13.10;;;5.47;;
9522;SDS011;63165;43.016;25.784;2022-12-29T12:46:50;16.25;;;6.20;;
9522;SDS011;63165;43.016;25.784;2022-12-29T12:52:51;40.03;;;14.60;;
9522;SDS011;63165;43.016;25.784;2022-12-29T12:55:49;23.95;;;9.18;;
9522;SDS011;63165;43.016;25.784;2022-12-29T12:58:27;25.95;;;9.75;;
9522;SDS011;63165;43.016;25.784;2022-12-29T13:01:05;52.85;;;17.00;;
9522;SDS011;63165;43.016;25.784;2022-12-29T13:03:45;60.13;;;15.90;;
9522;SDS011;63165;43.016;25.784;2022-12-29T13:06:25;71.93;;;20.90;;
9522;SDS011;63165;43.016;25.784;2022-12-29T13:12:02;57.40;;;19.67;;
9522;SDS011;63165;43.016;25.784;2022-12-29T13:14:42;15.77;;;7.13;;
9522;SDS011;63165;43.016;25.784;2022-12-29T13:17:30;16.65;;;6.95;;
9522;SDS011;63165;43.016;25.784;2022-12-29T13:20:06;19.67;;;7.30;;
9522;SDS011;63165;43.016;25.784;2022-12-29T13:22:48;23.38;;;9.70;;
9522;SDS011;63165;43.016;25.784;2022-12-29T13:25:25;74.55;;;24.38;;
9522;SDS011;63165;43.016;25.784;2022-12-29T13:28:00;25.58;;;8.75;;
9522;SDS011;63165;43.016;25.784;2022-12-29T13:30:38;17.50;;;7.43;;
9522;SDS011;63165;43.016;25.784;2022-12-29T13:33:18;22.90;;;7.10;;
9522;SDS011;63165;43.016;25.784;2022-12-29T13:35:55;19.33;;;7.80;;
9522;SDS011;63165;43.016;25.784;2022-12-29T13:38:29;21.27;;;7.35;;
9522;SDS011;63165;43.016;25.784;2022-12-29T13:41:03;34.25;;;12.82;;
9522;SDS011;63165;43.016;25.784;2022-12-29T13:43:35;53.78;;;19.88;;
9522;SDS011;63165;43.016;25.784;2022-12-29T13:46:07;20.92;;;7.75;;
9522;SDS011;63165;43.016;25.784;2022-12-29T13:48:42;19.35;;;7.78;;
9522;SDS011;63165;43.016;25.784;2022-12-29T13:51:14;18.35;;;7.43;;
9522;SDS011;63165;43.016;25.784;2022-12-29T13:53:51;19.73;;;7.50;;
9522;SDS011;63165;43.016;25.784;2022-12-29T13:56:30;19.60;;;7.40;;
9522;SDS011;63165;43.016;25.784;2022-12-29T13:59:03;27.90;;;8.60;;
9522;SDS011;63165;43.016;25.784;2022-12-29T14:01:39;20.30;;;7.63;;
9522;SDS011;63165;43.016;25.784;2022-12-29T14:04:13;21.40;;;8.20;;
9522;SDS011;63165;43.016;25.784;2022-12-29T14:06:41;21.13;;;7.88;;
9522;SDS011;63165;43.016;25.784;2022-12-29T14:09:28;26.50;;;9.05;;
9522;SDS011;63165;43.016;25.784;2022-12-29T14:12:18;23.23;;;8.82;;
9522;SDS011;63165;43.016;25.784;2022-12-29T14:15:01;27.55;;;9.18;;
9522;SDS011;63165;43.016;25.784;2022-12-29T14:17:40;31.65;;;9.60;;
9522;SDS011;63165;43.016;25.784;2022-12-29T14:20:17;26.10;;;9.98;;
9522;SDS011;63165;43.016;25.784;2022-12-29T14:22:57;24.10;;;9.05;;
9522;SDS011;63165;43.016;25.784;2022-12-29T14:28:23;29.73;;;10.60;;
9522;SDS011;63165;43.016;25.784;2022-12-29T14:30:52;24.85;;;9.55;;
9522;SDS011;63165;43.016;25.784;2022-12-29T14:33:24;23.83;;;9.40;;
9522;SDS011;63165;43.016;25.784;2022-12-29T14:35:58;23.42;;;8.60;;
9522;SDS011;63165;43.016;25.784;2022-12-29T14:38:46;22.40;;;8.60;;
9522;SDS011;63165;43.016;25.784;2022-12-29T14:44:04;36.50;;;13.00;;
9522;SDS011;63165;43.016;25.784;2022-12-29T14:46:54;29.08;;;10.65;;
9522;SDS011;63165;43.016;25.784;2022-12-29T14:49:25;35.67;;;10.27;;
9522;SDS011;63165;43.016;25.784;2022-12-29T14:52:04;36.72;;;9.57;;
9522;SDS011;63165;43.016;25.784;2022-12-29T14:54:41;75.75;;;24.88;;
9522;SDS011;63165;43.016;25.784;2022-12-29T15:00:06;58.13;;;16.00;;
9522;SDS011;63165;43.016;25.784;2022-12-29T15:02:45;45.22;;;14.80;;
9522;SDS011;63165;43.016;25.784;2022-12-29T15:05:27;43.63;;;14.57;;
9522;SDS011;63165;43.016;25.784;2022-12-29T15:08:00;37.08;;;12.68;;
9522;SDS011;63165;43.016;25.784;2022-12-29T15:10:32;54.65;;;18.17;;
9522;SDS011;63165;43.016;25.784;2022-12-29T15:13:13;45.85;;;16.33;;
9522;SDS011;63165;43.016;25.784;2022-12-29T15:15:43;61.03;;;20.08;;
9522;SDS011;63165;43.016;25.784;2022-12-29T15:18:15;44.17;;;15.52;;
9522;SDS011;63165;43.016;25.784;2022-12-29T15:20:50;43.08;;;15.60;;
9522;SDS011;63165;43.016;25.784;2022-12-29T15:23:21;40.40;;;14.73;;